Viimsi — ES2084 — position and weather

sailwx.info

Track history (hours):
 
Tides and Currents Weather Stations Pressure Air Temp Water Temp Dewpoint Dewpoint Depression Visibility Wind Speed Wind Dir Waves Ship Positions

Viimsi

Last reported at 2015-Jul-30 17:33 UTC. Time now 2015-Jul-30 18:07 UTC.
Position N 59°28' E 024°43'.

Length 78 m; draft 4.8 m.

Type: Ship. MMSI: 276297000.

Date/timePositionNaut miles runAvg speedWind from/ knotsBaromVisibWave heightAir tempDewpointWater temp
2015-Jul-30 17:33N 59°28' E 024°43'0 0.0
2015-Jul-30 16:33N 59°28' E 024°43'0 0.0
2015-Jul-30 15:33N 59°28' E 024°43'0 0.0
2015-Jul-30 14:33N 59°28' E 024°43'0 0.0
2015-Jul-30 13:34N 59°28' E 024°43'0 0.0
2015-Jul-30 12:34N 59°28' E 024°43'0 0.0
2015-Jul-30 11:34N 59°28' E 024°43'0 0.0
2015-Jul-30 10:33N 59°28' E 024°43'0 0.0
2015-Jul-30 09:34N 59°28' E 024°43'0 0.0
2015-Jul-30 08:34N 59°28' E 024°43'0 0.0
2015-Jul-30 07:34N 59°28' E 024°43'0 0.0
2015-Jul-30 06:33N 59°28' E 024°43'0 0.0
2015-Jul-30 05:34N 59°28' E 024°43'0 0.0
2015-Jul-30 04:33N 59°28' E 024°43'0 0.0
2015-Jul-30 03:33N 59°28' E 024°43'0 0.0
2015-Jul-30 02:32N 59°28' E 024°43'0 0.0
2015-Jul-30 01:28N 59°28' E 024°43'0 0.0
2015-Jul-30 00:33N 59°28' E 024°43'0 0.0
2015-Jul-29 23:34N 59°28' E 024°43'0 0.0
2015-Jul-29 22:33N 59°28' E 024°43'0 0.0
2015-Jul-29 21:34N 59°28' E 024°43'0 0.0
2015-Jul-29 20:33N 59°28' E 024°43'0 0.0
2015-Jul-29 19:34N 59°28' E 024°43'0 0.0
2015-Jul-29 18:34N 59°28' E 024°43'0 0.0
2015-Jul-29 17:33N 59°28' E 024°43'0 0.0
2015-Jul-29 16:34N 59°28' E 024°43'0 0.0
2015-Jul-29 15:32N 59°28' E 024°43'0 0.0
2015-Jul-29 13:28N 59°28' E 024°43'0 0.0
2015-Jul-29 12:33N 59°28' E 024°43'0 0.0
2015-Jul-29 11:33N 59°28' E 024°43'0 0.0
2015-Jul-29 10:34N 59°28' E 024°43'0 0.0
2015-Jul-29 09:33N 59°28' E 024°43'0 0.0
2015-Jul-29 08:34N 59°28' E 024°43'0 0.0
2015-Jul-29 07:33N 59°28' E 024°43'0 0.0
2015-Jul-29 06:33N 59°28' E 024°43'1 0.7
2015-Jul-29 05:34N 59°28' E 024°44'3 3.1
2015-Jul-29 04:33N 59°30' E 024°49'0 0.0
2015-Jul-29 03:34N 59°30' E 024°49'0 0.0
2015-Jul-29 02:34N 59°30' E 024°49'0 0.0
2015-Jul-29 01:33N 59°30' E 024°49'0 0.0
2015-Jul-29 00:33N 59°30' E 024°49'0 0.0
2015-Jul-28 23:34N 59°30' E 024°49'0 0.0
2015-Jul-28 22:33N 59°30' E 024°49'0 0.0
2015-Jul-28 21:33N 59°30' E 024°49'0 0.0
2015-Jul-28 20:33N 59°30' E 024°49'0 0.0
2015-Jul-28 19:34N 59°30' E 024°49'0 0.0
2015-Jul-28 18:33N 59°30' E 024°49'0 0.0
2015-Jul-28 17:34N 59°30' E 024°49'0 0.0
2015-Jul-28 16:33N 59°30' E 024°49'0 0.0
2015-Jul-28 15:09N 59°30' E 024°49'0 0.0
2015-Jul-28 14:29N 59°30' E 024°49'0 0.0
2015-Jul-28 13:32N 59°30' E 024°49'0 0.0
2015-Jul-28 11:29N 59°30' E 024°49'4 3.2
2015-Jul-28 10:15N 59°28' E 024°43'0 0.1
2015-Jul-28 09:16N 59°28' E 024°42'0 0.0
2015-Jul-28 08:29N 59°28' E 024°42'0 0.0
2015-Jul-28 06:28N 59°28' E 024°42'0 0.0
2015-Jul-28 05:34N 59°28' E 024°42'0 0.0
2015-Jul-28 04:33N 59°28' E 024°42'0 0.0
2015-Jul-28 03:33N 59°28' E 024°42'0 0.0
2015-Jul-28 02:34N 59°28' E 024°42'0 0.0
2015-Jul-28 01:33N 59°28' E 024°42'0 0.0
2015-Jul-28 00:33N 59°28' E 024°42'0 0.0
2015-Jul-27 23:34N 59°28' E 024°42'0 0.0
2015-Jul-27 22:33N 59°28' E 024°42'0 0.0
2015-Jul-27 21:33N 59°28' E 024°42'0 0.0
2015-Jul-27 20:33N 59°28' E 024°42'1 0.9
2015-Jul-27 19:34N 59°28' E 024°44'7 3.3
2015-Jul-27 17:32N 59°29' E 024°31'0 0.2
2015-Jul-27 16:33N 59°29' E 024°32'0 0.3
2015-Jul-27 15:33N 59°29' E 024°32'0 0.0
2015-Jul-27 14:32N 59°29' E 024°32'4 2.7
2015-Jul-27 13:07N 59°30' E 024°39'5 8.3
2015-Jul-27 12:33N 59°27' E 024°47'0 0.4
2015-Jul-27 11:33N 59°27' E 024°46'0 0.0
2015-Jul-27 10:32N 59°27' E 024°46'0 0.0
2015-Jul-27 09:33N 59°27' E 024°46'0 0.0
2015-Jul-27 08:33N 59°27' E 024°46'1 0.6
2015-Jul-27 07:33N 59°27' E 024°46'2 1.9
2015-Jul-27 06:32N 59°28' E 024°42'0 0.0
2015-Jul-27 05:33N 59°28' E 024°42'1 0.7
2015-Jul-27 04:31N 59°28' E 024°44'9 9.5
2015-Jul-27 03:33N 59°37' E 024°41'9 8.7
2015-Jul-27 02:34N 59°33' E 024°55'1 0.2
2015-Jul-26 19:21N 59°32' E 024°56'5 6.1
2015-Jul-26 18:33N 59°35' E 024°50'0 0.0
2015-Jul-26 17:33N 59°35' E 024°50'0 0.1
2015-Jul-26 16:34N 59°35' E 024°50'0 0.0
2015-Jul-26 15:34N 59°35' E 024°50'0 0.0
2015-Jul-26 14:33N 59°35' E 024°50'0 0.0
2015-Jul-26 13:33N 59°35' E 024°50'0 0.0
2015-Jul-26 12:34N 59°35' E 024°50'4 3.6
2015-Jul-26 11:34N 59°34' E 024°43'7 7.4
2015-Jul-26 10:34N 59°27' E 024°46'0 0.0
2015-Jul-26 09:34N 59°27' E 024°46'0 0.0
2015-Jul-26 08:34N 59°27' E 024°46'0 0.0
2015-Jul-26 07:34N 59°27' E 024°46'1 0.8
2015-Jul-26 06:33N 59°27' E 024°46'0 0.3
2015-Jul-26 05:28N 59°28' E 024°45'0 0.0
2015-Jul-26 04:33N 59°28' E 024°45'0 0.0
2015-Jul-26 03:33N 59°28' E 024°45'0 0.0
2015-Jul-26 02:33N 59°28' E 024°45'0 0.0
2015-Jul-26 01:33N 59°28' E 024°45'0 0.0
2015-Jul-26 00:33N 59°28' E 024°45'0 0.0
2015-Jul-25 23:33N 59°28' E 024°45'0 0.0
2015-Jul-25 22:33N 59°28' E 024°45'0 0.0
2015-Jul-25 21:33N 59°28' E 024°45'4 3.7
2015-Jul-25 20:33N 59°30' E 024°39'3 2.5
2015-Jul-25 19:33N 59°27' E 024°40'0 0.0
2015-Jul-25 18:27N 59°27' E 024°40'0 0.0
2015-Jul-25 17:30N 59°27' E 024°40'0 0.0
2015-Jul-25 16:24N 59°27' E 024°40'0 0.0
2015-Jul-25 15:32N 59°27' E 024°40'0 0.0
2015-Jul-25 13:33N 59°27' E 024°40'4 4.4
2015-Jul-25 12:33N 59°32' E 024°39'6 6.4
2015-Jul-25 11:33N 59°37' E 024°47'3 2.5
2015-Jul-25 10:33N 59°35' E 024°49'0 0.0
2015-Jul-25 09:33N 59°35' E 024°49'1 0.8
2015-Jul-25 08:33N 59°35' E 024°48'0 0.0
2015-Jul-25 07:33N 59°35' E 024°48'0 0.2
2015-Jul-25 06:33N 59°35' E 024°48'4 3.7
2015-Jul-25 05:33N 59°33' E 024°44'5 5.1
2015-Jul-25 04:33N 59°28' E 024°42'0 0.0
2015-Jul-25 03:33N 59°28' E 024°42'0 0.0
2015-Jul-25 02:34N 59°28' E 024°42'0 0.0
2015-Jul-25 01:33N 59°28' E 024°42'0 0.0
2015-Jul-25 00:33N 59°28' E 024°42'0 0.0
2015-Jul-24 23:33N 59°28' E 024°42'0 0.0
2015-Jul-24 22:33N 59°28' E 024°42'0 0.0
2015-Jul-24 21:32N 59°28' E 024°42'0 0.0
2015-Jul-24 20:34N 59°28' E 024°42'0 0.0
2015-Jul-24 19:33N 59°28' E 024°42'0 0.0
2015-Jul-24 18:33N 59°28' E 024°42'0 0.0
2015-Jul-24 17:33N 59°28' E 024°42'0 0.0
2015-Jul-24 16:33N 59°28' E 024°42'0 0.0
2015-Jul-24 15:33N 59°28' E 024°42'0 0.0
2015-Jul-24 14:33N 59°28' E 024°42'0 0.0
2015-Jul-24 11:07N 59°28' E 024°42'0 0.0
2015-Jul-24 10:33N 59°28' E 024°42'0 0.0
2015-Jul-24 09:33N 59°28' E 024°42'0 0.0
2015-Jul-24 08:33N 59°28' E 024°42'0 0.0
2015-Jul-24 07:33N 59°28' E 024°42'0 0.0
2015-Jul-24 06:33N 59°28' E 024°42'0 0.0
2015-Jul-24 05:34N 59°28' E 024°42'0 0.0
2015-Jul-24 04:33N 59°28' E 024°42'0 0.0
2015-Jul-24 03:33N 59°28' E 024°42'0 0.0
2015-Jul-24 02:33N 59°28' E 024°42'0 0.0
2015-Jul-24 01:33N 59°28' E 024°42'0 0.0
2015-Jul-24 00:33N 59°28' E 024°42'0 0.0
2015-Jul-23 23:33N 59°28' E 024°42'0 0.0
2015-Jul-23 22:33N 59°28' E 024°42'0 0.0
2015-Jul-23 21:33N 59°28' E 024°42'0 0.0
2015-Jul-23 20:33N 59°28' E 024°42'2 1.7
2015-Jul-23 19:33N 59°29' E 024°44'6 5.9
2015-Jul-23 18:33N 59°29' E 024°32'0 0.0
2015-Jul-23 17:18N 59°29' E 024°32'0 0.0
2015-Jul-23 15:27N 59°29' E 024°32'0 0.2
2015-Jul-23 14:19N 59°29' E 024°32'0 0.0
2015-Jul-23 13:19N 59°29' E 024°32'0 0.0
2015-Jul-23 12:32N 59°29' E 024°32'1 1.4
2015-Jul-23 11:31N 59°30' E 024°30'8 0.5
2015-Jul-22 18:10N 59°38' E 024°31'6 9.3
2015-Jul-22 17:33N 59°38' E 024°42'5 4.6
2015-Jul-22 16:33N 59°35' E 024°49'0 0.0
2015-Jul-22 15:34N 59°35' E 024°49'4 4.1
2015-Jul-22 14:33N 59°37' E 024°42'9 8.7
2015-Jul-22 13:33N 59°29' E 024°46'2 1.0
2015-Jul-22 11:18N 59°28' E 024°42'0 0.0
2015-Jul-22 10:33N 59°28' E 024°42'0 0.0
2015-Jul-22 09:34N 59°28' E 024°42'0 0.0
2015-Jul-22 08:34N 59°28' E 024°42'0 0.0
2015-Jul-22 07:33N 59°28' E 024°42'0 0.0
2015-Jul-22 06:34N 59°28' E 024°42'0 0.0
2015-Jul-22 05:34N 59°28' E 024°42'0 0.0
2015-Jul-22 04:34N 59°28' E 024°42'0 0.0
2015-Jul-22 03:34N 59°28' E 024°42'0 0.0
2015-Jul-22 02:33N 59°28' E 024°42'0 0.0
2015-Jul-22 01:34N 59°28' E 024°42'0 0.0
2015-Jul-22 00:34N 59°28' E 024°42'0 0.0
2015-Jul-21 23:34N 59°28' E 024°42'0 0.0
2015-Jul-21 22:34N 59°28' E 024°42'0 0.0
2015-Jul-21 21:34N 59°28' E 024°42'0 0.0
2015-Jul-21 20:34N 59°28' E 024°42'0 0.0
2015-Jul-21 19:34N 59°28' E 024°42'0 0.0
2015-Jul-21 18:34N 59°28' E 024°42'0 0.0
2015-Jul-21 17:33N 59°28' E 024°42'0 0.1
2015-Jul-21 16:04N 59°28' E 024°43'3 5.8
2015-Jul-21 15:34N 59°29' E 024°47'1 1.0
2015-Jul-21 14:33N 59°30' E 024°49'0 0.0
2015-Jul-21 13:34N 59°30' E 024°49'0 0.0
2015-Jul-21 12:33N 59°30' E 024°49'0 0.0
2015-Jul-21 11:33N 59°30' E 024°49'0 0.0
2015-Jul-21 10:33N 59°30' E 024°49'0 0.0
2015-Jul-21 07:09N 59°30' E 024°49'0 0.0
2015-Jul-21 06:34N 59°30' E 024°49'0 0.0
2015-Jul-21 05:33N 59°30' E 024°49'2 2.0
2015-Jul-21 04:34N 59°28' E 024°46'2 1.8
2015-Jul-21 03:33N 59°28' E 024°43'0 0.0
2015-Jul-21 02:33N 59°28' E 024°43'0 0.0
2015-Jul-21 01:33N 59°28' E 024°43'0 0.0
2015-Jul-21 00:33N 59°28' E 024°43'0 0.0
2015-Jul-20 23:33N 59°28' E 024°43'0 0.0
2015-Jul-20 22:33N 59°28' E 024°43'0 0.0
2015-Jul-20 21:33N 59°28' E 024°43'0 0.0
2015-Jul-20 20:33N 59°28' E 024°43'0 0.0
2015-Jul-20 19:33N 59°28' E 024°43'0 0.0
2015-Jul-20 18:33N 59°28' E 024°43'0 0.0
2015-Jul-20 17:33N 59°28' E 024°43'  
Track history (hours):
 
Tides and Currents Weather Stations Pressure Air Temp Water Temp Dewpoint Dewpoint Depression Visibility Wind Speed Wind Dir Waves Ship Positions

Viimsi

Last reported at 2015-Jul-30 17:33 UTC. Time now 2015-Jul-30 18:07 UTC.
Position N 59°28' E 024°43'.

Length 78 m; draft 4.8 m.

Type: Ship. MMSI: 276297000.

Date/timePositionNaut miles runAvg speedWind from/ knotsBaromVisibWave heightAir tempDewpointWater temp
2015-Jul-30 17:33N 59°28' E 024°43'0 0.0
2015-Jul-30 16:33N 59°28' E 024°43'0 0.0
2015-Jul-30 15:33N 59°28' E 024°43'0 0.0
2015-Jul-30 14:33N 59°28' E 024°43'0 0.0
2015-Jul-30 13:34N 59°28' E 024°43'0 0.0
2015-Jul-30 12:34N 59°28' E 024°43'0 0.0
2015-Jul-30 11:34N 59°28' E 024°43'0 0.0
2015-Jul-30 10:33N 59°28' E 024°43'0 0.0
2015-Jul-30 09:34N 59°28' E 024°43'0 0.0
2015-Jul-30 08:34N 59°28' E 024°43'0 0.0
2015-Jul-30 07:34N 59°28' E 024°43'0 0.0
2015-Jul-30 06:33N 59°28' E 024°43'0 0.0
2015-Jul-30 05:34N 59°28' E 024°43'0 0.0
2015-Jul-30 04:33N 59°28' E 024°43'0 0.0
2015-Jul-30 03:33N 59°28' E 024°43'0 0.0
2015-Jul-30 02:32N 59°28' E 024°43'0 0.0
2015-Jul-30 01:28N 59°28' E 024°43'0 0.0
2015-Jul-30 00:33N 59°28' E 024°43'0 0.0
2015-Jul-29 23:34N 59°28' E 024°43'0 0.0
2015-Jul-29 22:33N 59°28' E 024°43'0 0.0
2015-Jul-29 21:34N 59°28' E 024°43'0 0.0
2015-Jul-29 20:33N 59°28' E 024°43'0 0.0
2015-Jul-29 19:34N 59°28' E 024°43'0 0.0
2015-Jul-29 18:34N 59°28' E 024°43'0 0.0
2015-Jul-29 17:33N 59°28' E 024°43'0 0.0
2015-Jul-29 16:34N 59°28' E 024°43'0 0.0
2015-Jul-29 15:32N 59°28' E 024°43'0 0.0
2015-Jul-29 13:28N 59°28' E 024°43'0 0.0
2015-Jul-29 12:33N 59°28' E 024°43'0 0.0
2015-Jul-29 11:33N 59°28' E 024°43'0 0.0
2015-Jul-29 10:34N 59°28' E 024°43'0 0.0
2015-Jul-29 09:33N 59°28' E 024°43'0 0.0
2015-Jul-29 08:34N 59°28' E 024°43'0 0.0
2015-Jul-29 07:33N 59°28' E 024°43'0 0.0
2015-Jul-29 06:33N 59°28' E 024°43'1 0.7
2015-Jul-29 05:34N 59°28' E 024°44'3 3.1
2015-Jul-29 04:33N 59°30' E 024°49'0 0.0
2015-Jul-29 03:34N 59°30' E 024°49'0 0.0
2015-Jul-29 02:34N 59°30' E 024°49'0 0.0
2015-Jul-29 01:33N 59°30' E 024°49'0 0.0
2015-Jul-29 00:33N 59°30' E 024°49'0 0.0
2015-Jul-28 23:34N 59°30' E 024°49'0 0.0
2015-Jul-28 22:33N 59°30' E 024°49'0 0.0
2015-Jul-28 21:33N 59°30' E 024°49'0 0.0
2015-Jul-28 20:33N 59°30' E 024°49'0 0.0
2015-Jul-28 19:34N 59°30' E 024°49'0 0.0
2015-Jul-28 18:33N 59°30' E 024°49'0 0.0
2015-Jul-28 17:34N 59°30' E 024°49'0 0.0
2015-Jul-28 16:33N 59°30' E 024°49'0 0.0
2015-Jul-28 15:09N 59°30' E 024°49'0 0.0
2015-Jul-28 14:29N 59°30' E 024°49'0 0.0
2015-Jul-28 13:32N 59°30' E 024°49'0 0.0
2015-Jul-28 11:29N 59°30' E 024°49'4 3.2
2015-Jul-28 10:15N 59°28' E 024°43'0 0.1
2015-Jul-28 09:16N 59°28' E 024°42'0 0.0
2015-Jul-28 08:29N 59°28' E 024°42'0 0.0
2015-Jul-28 06:28N 59°28' E 024°42'0 0.0
2015-Jul-28 05:34N 59°28' E 024°42'0 0.0
2015-Jul-28 04:33N 59°28' E 024°42'0 0.0
2015-Jul-28 03:33N 59°28' E 024°42'0 0.0
2015-Jul-28 02:34N 59°28' E 024°42'0 0.0
2015-Jul-28 01:33N 59°28' E 024°42'0 0.0
2015-Jul-28 00:33N 59°28' E 024°42'0 0.0
2015-Jul-27 23:34N 59°28' E 024°42'0 0.0
2015-Jul-27 22:33N 59°28' E 024°42'0 0.0
2015-Jul-27 21:33N 59°28' E 024°42'0 0.0
2015-Jul-27 20:33N 59°28' E 024°42'1 0.9
2015-Jul-27 19:34N 59°28' E 024°44'7 3.3
2015-Jul-27 17:32N 59°29' E 024°31'0 0.2
2015-Jul-27 16:33N 59°29' E 024°32'0 0.3
2015-Jul-27 15:33N 59°29' E 024°32'0 0.0
2015-Jul-27 14:32N 59°29' E 024°32'4 2.7
2015-Jul-27 13:07N 59°30' E 024°39'5 8.3
2015-Jul-27 12:33N 59°27' E 024°47'0 0.4
2015-Jul-27 11:33N 59°27' E 024°46'0 0.0
2015-Jul-27 10:32N 59°27' E 024°46'0 0.0
2015-Jul-27 09:33N 59°27' E 024°46'0 0.0
2015-Jul-27 08:33N 59°27' E 024°46'1 0.6
2015-Jul-27 07:33N 59°27' E 024°46'2 1.9
2015-Jul-27 06:32N 59°28' E 024°42'0 0.0
2015-Jul-27 05:33N 59°28' E 024°42'1 0.7
2015-Jul-27 04:31N 59°28' E 024°44'9 9.5
2015-Jul-27 03:33N 59°37' E 024°41'9 8.7
2015-Jul-27 02:34N 59°33' E 024°55'1 0.2
2015-Jul-26 19:21N 59°32' E 024°56'5 6.1
2015-Jul-26 18:33N 59°35' E 024°50'0 0.0
2015-Jul-26 17:33N 59°35' E 024°50'0 0.1
2015-Jul-26 16:34N 59°35' E 024°50'0 0.0
2015-Jul-26 15:34N 59°35' E 024°50'0 0.0
2015-Jul-26 14:33N 59°35' E 024°50'0 0.0
2015-Jul-26 13:33N 59°35' E 024°50'0 0.0
2015-Jul-26 12:34N 59°35' E 024°50'4 3.6
2015-Jul-26 11:34N 59°34' E 024°43'7 7.4
2015-Jul-26 10:34N 59°27' E 024°46'0 0.0
2015-Jul-26 09:34N 59°27' E 024°46'0 0.0
2015-Jul-26 08:34N 59°27' E 024°46'0 0.0
2015-Jul-26 07:34N 59°27' E 024°46'1 0.8
2015-Jul-26 06:33N 59°27' E 024°46'0 0.3
2015-Jul-26 05:28N 59°28' E 024°45'0 0.0
2015-Jul-26 04:33N 59°28' E 024°45'0 0.0
2015-Jul-26 03:33N 59°28' E 024°45'0 0.0
2015-Jul-26 02:33N 59°28' E 024°45'0 0.0
2015-Jul-26 01:33N 59°28' E 024°45'0 0.0
2015-Jul-26 00:33N 59°28' E 024°45'0 0.0
2015-Jul-25 23:33N 59°28' E 024°45'0 0.0
2015-Jul-25 22:33N 59°28' E 024°45'0 0.0
2015-Jul-25 21:33N 59°28' E 024°45'4 3.7
2015-Jul-25 20:33N 59°30' E 024°39'3 2.5
2015-Jul-25 19:33N 59°27' E 024°40'0 0.0
2015-Jul-25 18:27N 59°27' E 024°40'0 0.0
2015-Jul-25 17:30N 59°27' E 024°40'0 0.0
2015-Jul-25 16:24N 59°27' E 024°40'0 0.0
2015-Jul-25 15:32N 59°27' E 024°40'0 0.0
2015-Jul-25 13:33N 59°27' E 024°40'4 4.4
2015-Jul-25 12:33N 59°32' E 024°39'6 6.4
2015-Jul-25 11:33N 59°37' E 024°47'3 2.5
2015-Jul-25 10:33N 59°35' E 024°49'0 0.0
2015-Jul-25 09:33N 59°35' E 024°49'1 0.8
2015-Jul-25 08:33N 59°35' E 024°48'0 0.0
2015-Jul-25 07:33N 59°35' E 024°48'0 0.2
2015-Jul-25 06:33N 59°35' E 024°48'4 3.7
2015-Jul-25 05:33N 59°33' E 024°44'5 5.1
2015-Jul-25 04:33N 59°28' E 024°42'0 0.0
2015-Jul-25 03:33N 59°28' E 024°42'0 0.0
2015-Jul-25 02:34N 59°28' E 024°42'0 0.0
2015-Jul-25 01:33N 59°28' E 024°42'0 0.0
2015-Jul-25 00:33N 59°28' E 024°42'0 0.0
2015-Jul-24 23:33N 59°28' E 024°42'0 0.0
2015-Jul-24 22:33N 59°28' E 024°42'0 0.0
2015-Jul-24 21:32N 59°28' E 024°42'0 0.0
2015-Jul-24 20:34N 59°28' E 024°42'0 0.0
2015-Jul-24 19:33N 59°28' E 024°42'0 0.0
2015-Jul-24 18:33N 59°28' E 024°42'0 0.0
2015-Jul-24 17:33N 59°28' E 024°42'0 0.0
2015-Jul-24 16:33N 59°28' E 024°42'0 0.0
2015-Jul-24 15:33N 59°28' E 024°42'0 0.0
2015-Jul-24 14:33N 59°28' E 024°42'0 0.0
2015-Jul-24 11:07N 59°28' E 024°42'0 0.0
2015-Jul-24 10:33N 59°28' E 024°42'0 0.0
2015-Jul-24 09:33N 59°28' E 024°42'0 0.0
2015-Jul-24 08:33N 59°28' E 024°42'0 0.0
2015-Jul-24 07:33N 59°28' E 024°42'0 0.0
2015-Jul-24 06:33N 59°28' E 024°42'0 0.0
2015-Jul-24 05:34N 59°28' E 024°42'0 0.0
2015-Jul-24 04:33N 59°28' E 024°42'0 0.0
2015-Jul-24 03:33N 59°28' E 024°42'0 0.0
2015-Jul-24 02:33N 59°28' E 024°42'0 0.0
2015-Jul-24 01:33N 59°28' E 024°42'0 0.0
2015-Jul-24 00:33N 59°28' E 024°42'0 0.0
2015-Jul-23 23:33N 59°28' E 024°42'0 0.0
2015-Jul-23 22:33N 59°28' E 024°42'0 0.0
2015-Jul-23 21:33N 59°28' E 024°42'0 0.0
2015-Jul-23 20:33N 59°28' E 024°42'2 1.7
2015-Jul-23 19:33N 59°29' E 024°44'6 5.9
2015-Jul-23 18:33N 59°29' E 024°32'0 0.0
2015-Jul-23 17:18N 59°29' E 024°32'0 0.0
2015-Jul-23 15:27N 59°29' E 024°32'0 0.2
2015-Jul-23 14:19N 59°29' E 024°32'0 0.0
2015-Jul-23 13:19N 59°29' E 024°32'0 0.0
2015-Jul-23 12:32N 59°29' E 024°32'1 1.4
2015-Jul-23 11:31N 59°30' E 024°30'8 0.5
2015-Jul-22 18:10N 59°38' E 024°31'6 9.3
2015-Jul-22 17:33N 59°38' E 024°42'5 4.6
2015-Jul-22 16:33N 59°35' E 024°49'0 0.0
2015-Jul-22 15:34N 59°35' E 024°49'4 4.1
2015-Jul-22 14:33N 59°37' E 024°42'9 8.7
2015-Jul-22 13:33N 59°29' E 024°46'2 1.0
2015-Jul-22 11:18N 59°28' E 024°42'0 0.0
2015-Jul-22 10:33N 59°28' E 024°42'0 0.0
2015-Jul-22 09:34N 59°28' E 024°42'0 0.0
2015-Jul-22 08:34N 59°28' E 024°42'0 0.0
2015-Jul-22 07:33N 59°28' E 024°42'0 0.0
2015-Jul-22 06:34N 59°28' E 024°42'0 0.0
2015-Jul-22 05:34N 59°28' E 024°42'0 0.0
2015-Jul-22 04:34N 59°28' E 024°42'0 0.0
2015-Jul-22 03:34N 59°28' E 024°42'0 0.0
2015-Jul-22 02:33N 59°28' E 024°42'0 0.0
2015-Jul-22 01:34N 59°28' E 024°42'0 0.0
2015-Jul-22 00:34N 59°28' E 024°42'0 0.0
2015-Jul-21 23:34N 59°28' E 024°42'0 0.0
2015-Jul-21 22:34N 59°28' E 024°42'0 0.0
2015-Jul-21 21:34N 59°28' E 024°42'0 0.0
2015-Jul-21 20:34N 59°28' E 024°42'0 0.0
2015-Jul-21 19:34N 59°28' E 024°42'0 0.0
2015-Jul-21 18:34N 59°28' E 024°42'0 0.0
2015-Jul-21 17:33N 59°28' E 024°42'0 0.1
2015-Jul-21 16:04N 59°28' E 024°43'3 5.8
2015-Jul-21 15:34N 59°29' E 024°47'1 1.0
2015-Jul-21 14:33N 59°30' E 024°49'0 0.0
2015-Jul-21 13:34N 59°30' E 024°49'0 0.0
2015-Jul-21 12:33N 59°30' E 024°49'0 0.0
2015-Jul-21 11:33N 59°30' E 024°49'0 0.0
2015-Jul-21 10:33N 59°30' E 024°49'0 0.0
2015-Jul-21 07:09N 59°30' E 024°49'0 0.0
2015-Jul-21 06:34N 59°30' E 024°49'0 0.0
2015-Jul-21 05:33N 59°30' E 024°49'2 2.0
2015-Jul-21 04:34N 59°28' E 024°46'2 1.8
2015-Jul-21 03:33N 59°28' E 024°43'0 0.0
2015-Jul-21 02:33N 59°28' E 024°43'0 0.0
2015-Jul-21 01:33N 59°28' E 024°43'0 0.0
2015-Jul-21 00:33N 59°28' E 024°43'0 0.0
2015-Jul-20 23:33N 59°28' E 024°43'0 0.0
2015-Jul-20 22:33N 59°28' E 024°43'0 0.0
2015-Jul-20 21:33N 59°28' E 024°43'0 0.0
2015-Jul-20 20:33N 59°28' E 024°43'0 0.0
2015-Jul-20 19:33N 59°28' E 024°43'0 0.0
2015-Jul-20 18:33N 59°28' E 024°43'0 0.0
2015-Jul-20 17:33N 59°28' E 024°43'  

Dump ship's entire track history